createdAt,value
2022-08-01T00:00:52.859Z,25.35
2022-08-01T00:03:20.869Z,25.35
2022-08-01T00:05:50.077Z,25.34
2022-08-01T00:08:18.122Z,25.33
2022-08-01T00:10:45.987Z,25.32
2022-08-01T00:13:13.979Z,25.30
2022-08-01T00:15:41.832Z,25.30
2022-08-01T00:18:21.987Z,25.23
2022-08-01T00:20:51.327Z,25.28
2022-08-01T00:23:19.140Z,25.29
2022-08-01T00:25:47.138Z,25.27
2022-08-01T00:28:15.085Z,25.30
2022-08-01T00:30:43.175Z,25.23
2022-08-01T00:33:11.016Z,25.25
2022-08-01T00:35:39.012Z,25.20
2022-08-01T00:38:08.278Z,25.23
2022-08-01T00:40:36.316Z,25.21
2022-08-01T00:43:04.156Z,25.20
2022-08-01T00:45:32.149Z,25.19
2022-08-01T00:47:59.982Z,25.17
2022-08-01T00:50:28.018Z,25.02
2022-08-01T00:52:56.058Z,25.14
2022-08-01T00:55:25.358Z,24.98
2022-08-01T00:58:02.361Z,25.12
2022-08-01T01:00:34.837Z,25.07
2022-08-01T01:03:23.488Z,25.02
2022-08-01T01:05:58.452Z,24.99
2022-08-01T01:08:29.147Z,25.03
2022-08-01T01:11:00.438Z,24.80
2022-08-01T01:13:30.876Z,24.80
2022-08-01T01:16:01.121Z,25.04
2022-08-01T01:18:32.796Z,25.03
2022-08-01T01:21:03.407Z,25.01
2022-08-01T01:23:42.694Z,25.03
2022-08-01T01:26:19.692Z,24.84
2022-08-01T01:29:12.903Z,25.04
2022-08-01T01:31:44.077Z,25.00
2022-08-01T01:34:13.343Z,24.99
2022-08-01T01:36:41.547Z,24.88
2022-08-01T01:39:09.663Z,24.98
2022-08-01T01:41:37.980Z,24.92
2022-08-01T01:44:06.403Z,24.95
2022-08-01T01:46:35.609Z,24.94
2022-08-01T01:49:03.630Z,24.95
2022-08-01T01:51:31.510Z,24.94
2022-08-01T01:54:00.121Z,24.95
2022-08-01T01:56:28.187Z,24.98
2022-08-01T01:58:57.740Z,24.99
2022-08-01T02:01:58.351Z,24.98
2022-08-01T02:04:16.806Z,24.93
2022-08-01T02:06:45.119Z,24.96
2022-08-01T02:09:13.613Z,24.71
2022-08-01T02:12:07.621Z,24.93
2022-08-01T02:14:29.278Z,24.93
2022-08-01T02:16:59.202Z,24.84
2022-08-01T02:19:28.725Z,24.92
2022-08-01T02:21:58.015Z,24.91
2022-08-01T02:24:30.794Z,24.85
2022-08-01T02:27:00.152Z,24.89
2022-08-01T02:29:30.126Z,24.92
2022-08-01T02:31:58.150Z,24.80
2022-08-01T02:34:26.575Z,24.78
2022-08-01T02:36:55.833Z,24.91
2022-08-01T02:39:23.666Z,24.89
2022-08-01T02:41:52.390Z,24.78
2022-08-01T02:44:24.617Z,24.87
2022-08-01T02:46:53.679Z,24.71
2022-08-01T02:49:22.143Z,24.89
2022-08-01T02:51:50.197Z,24.69
2022-08-01T02:54:19.858Z,24.78
2022-08-01T02:56:47.838Z,24.89
2022-08-01T02:59:19.796Z,24.81
2022-08-01T03:01:50.225Z,24.63
2022-08-01T03:04:18.818Z,24.88
2022-08-01T03:06:46.741Z,24.87
2022-08-01T03:09:14.698Z,24.79
2022-08-01T03:11:46.564Z,24.63
2022-08-01T03:14:14.660Z,24.74
2022-08-01T03:16:44.066Z,24.85
2022-08-01T03:19:13.194Z,24.58
2022-08-01T03:21:41.596Z,24.84
2022-08-01T03:24:09.889Z,24.82
2022-08-01T03:26:38.368Z,24.83
2022-08-01T03:29:08.516Z,24.85
2022-08-01T03:31:36.786Z,24.85
2022-08-01T03:34:05.969Z,24.84
2022-08-01T03:36:35.781Z,24.85
2022-08-01T03:39:05.321Z,24.77
2022-08-01T03:41:36.029Z,24.85
2022-08-01T03:44:18.253Z,24.87
2022-08-01T03:46:48.569Z,24.82
2022-08-01T03:49:37.090Z,24.86
2022-08-01T03:52:06.319Z,24.82
2022-08-01T03:54:36.890Z,24.78
2022-08-01T03:57:04.901Z,24.67
2022-08-01T03:59:34.517Z,24.84
2022-08-01T04:02:02.526Z,24.87
2022-08-01T04:04:30.723Z,24.86
2022-08-01T04:06:58.590Z,24.88
2022-08-01T04:09:26.618Z,24.80
2022-08-01T04:11:54.615Z,24.84
2022-08-01T04:14:23.693Z,24.67
2022-08-01T04:16:53.010Z,24.80
2022-08-01T04:19:21.374Z,24.78
2022-08-01T04:21:49.299Z,24.79
2022-08-01T04:24:19.832Z,24.77
2022-08-01T04:26:48.549Z,24.60
2022-08-01T04:29:16.876Z,24.76
2022-08-01T04:31:45.372Z,24.73
2022-08-01T04:34:15.208Z,24.63
2022-08-01T04:36:43.825Z,24.69
2022-08-01T04:39:11.827Z,24.74
2022-08-01T04:41:39.657Z,24.74
2022-08-01T04:44:07.878Z,24.80
2022-08-01T04:46:35.994Z,24.82
2022-08-01T04:49:04.137Z,24.86
2022-08-01T04:51:33.394Z,24.90
2022-08-01T04:54:02.011Z,24.94
2022-08-01T04:56:29.900Z,24.98
2022-08-01T04:59:19.633Z,25.03
2022-08-01T05:01:51.563Z,25.06
2022-08-01T05:04:19.713Z,25.10
2022-08-01T05:06:48.908Z,25.12
2022-08-01T05:09:17.012Z,25.16
2022-08-01T05:11:44.884Z,25.19
2022-08-01T05:14:12.871Z,25.20
2022-08-01T05:16:40.730Z,25.21
2022-08-01T05:19:09.155Z,25.24
2022-08-01T05:21:37.179Z,25.27
2022-08-01T05:24:07.132Z,25.27
2022-08-01T05:26:36.592Z,25.30
2022-08-01T05:29:04.738Z,25.33
2022-08-01T05:31:35.098Z,25.17
2022-08-01T05:34:03.216Z,25.38
2022-08-01T05:36:31.092Z,25.41
2022-08-01T05:38:59.124Z,25.44
2022-08-01T05:41:28.614Z,25.46
2022-08-01T05:43:56.641Z,25.47
2022-08-01T05:46:27.439Z,25.50
2022-08-01T05:48:55.862Z,25.50
2022-08-01T05:51:23.783Z,25.27
2022-08-01T05:53:51.770Z,25.52
2022-08-01T05:56:19.695Z,24.89
2022-08-01T05:58:48.906Z,25.58
2022-08-01T06:01:16.882Z,25.23
2022-08-01T06:03:44.990Z,24.92
2022-08-01T06:06:12.886Z,24.82
2022-08-01T06:08:40.799Z,25.68
2022-08-01T06:11:08.700Z,24.57
2022-08-01T06:13:47.060Z,25.24
2022-08-01T06:16:17.682Z,25.81
2022-08-01T06:18:45.561Z,25.44
2022-08-01T06:21:13.654Z,25.65
2022-08-01T06:23:42.493Z,25.34
2022-08-01T06:26:10.516Z,25.26
2022-08-01T06:28:38.659Z,25.85
2022-08-01T06:31:06.589Z,25.44
2022-08-01T06:33:35.859Z,24.58
2022-08-01T06:36:03.851Z,25.66
2022-08-01T06:38:31.750Z,25.75
2022-08-01T06:40:59.697Z,25.92
2022-08-01T06:43:27.569Z,26.39
2022-08-01T06:45:56.381Z,25.79
2022-08-01T06:48:24.527Z,25.40
2022-08-01T06:51:08.902Z,25.36
2022-08-01T06:53:37.543Z,24.33
2022-08-01T06:56:06.088Z,25.93
2022-08-01T06:58:35.641Z,26.62
2022-08-01T07:01:05.152Z,26.66
2022-08-01T07:03:54.103Z,26.42
2022-08-01T07:06:23.115Z,27.01
2022-08-01T07:08:51.106Z,29.32
2022-08-01T07:11:19.384Z,29.25
2022-08-01T07:13:47.628Z,28.95
2022-08-01T07:16:15.701Z,28.11
2022-08-01T07:18:44.723Z,28.31
2022-08-01T07:21:18.531Z,27.20
2022-08-01T07:24:01.960Z,28.78
2022-08-01T07:26:39.351Z,27.02
2022-08-01T07:29:20.622Z,28.93
2022-08-01T07:31:48.519Z,27.61
2022-08-01T07:34:16.494Z,29.13
2022-08-01T07:36:44.832Z,28.76
2022-08-01T07:39:15.112Z,28.51
2022-08-01T07:42:04.614Z,28.83
2022-08-01T07:44:31.008Z,28.94
2022-08-01T07:46:59.170Z,28.51
2022-08-01T07:49:27.094Z,28.03
2022-08-01T07:52:02.703Z,28.87
2022-08-01T07:54:34.565Z,28.70
2022-08-01T07:57:03.084Z,28.77
2022-08-01T07:59:32.004Z,27.43
2022-08-01T08:02:00.280Z,26.83
2022-08-01T08:04:28.567Z,27.99
2022-08-01T08:06:56.744Z,29.61
2022-08-01T08:09:25.106Z,29.46
2022-08-01T08:11:54.973Z,27.95
2022-08-01T08:14:32.155Z,29.02
2022-08-01T08:17:01.942Z,28.75
2022-08-01T08:19:37.373Z,28.35
2022-08-01T08:22:07.185Z,28.48
2022-08-01T08:24:35.391Z,29.59
2022-08-01T08:27:05.071Z,29.66
2022-08-01T08:29:33.526Z,29.15
2022-08-01T08:32:02.104Z,30.70
2022-08-01T08:34:30.456Z,29.43
2022-08-01T08:36:59.269Z,28.60
2022-08-01T08:39:27.387Z,31.44
2022-08-01T08:41:55.472Z,30.92
2022-08-01T08:44:25.289Z,32.07
2022-08-01T08:46:53.798Z,33.84
2022-08-01T08:49:23.805Z,34.69
2022-08-01T08:51:53.313Z,36.06
2022-08-01T08:54:28.930Z,36.11
2022-08-01T08:57:00.378Z,36.94
2022-08-01T08:59:30.467Z,38.72
2022-08-01T09:01:58.480Z,37.97
2022-08-01T09:04:27.121Z,39.05
2022-08-01T09:06:55.545Z,38.69
2022-08-01T09:09:23.688Z,38.27
2022-08-01T09:11:56.884Z,37.47
2022-08-01T09:14:28.143Z,35.78
2022-08-01T09:17:08.650Z,35.48
2022-08-01T09:19:39.717Z,34.37
2022-08-01T09:22:09.969Z,33.97
2022-08-01T09:24:39.526Z,32.49
2022-08-01T09:27:19.726Z,31.87
2022-08-01T09:30:00.587Z,32.63
2022-08-01T09:32:35.926Z,31.92
2022-08-01T09:35:30.871Z,32.52
2022-08-01T09:38:16.746Z,31.32
2022-08-01T09:40:49.301Z,29.77
2022-08-01T09:43:17.564Z,31.30
2022-08-01T09:45:48.955Z,30.10
2022-08-01T09:48:20.041Z,30.35
2022-08-01T09:50:52.064Z,33.21
2022-08-01T09:53:20.803Z,33.25
2022-08-01T09:56:10.510Z,36.29
2022-08-01T09:59:00.319Z,37.99
2022-08-01T10:01:36.911Z,37.68
2022-08-01T10:04:12.414Z,37.71
2022-08-01T10:06:41.923Z,36.50
2022-08-01T10:09:11.219Z,36.02
2022-08-01T10:11:40.272Z,35.15
2022-08-01T10:14:08.756Z,35.73
2022-08-01T10:16:38.287Z,33.48
2022-08-01T10:19:14.650Z,35.53
2022-08-01T10:21:58.567Z,35.73
2022-08-01T10:24:30.701Z,35.28
2022-08-01T10:27:08.292Z,38.01
2022-08-01T10:30:05.603Z,39.86
2022-08-01T10:32:33.640Z,41.79
2022-08-01T10:35:06.215Z,42.61
2022-08-01T10:37:52.216Z,41.90
2022-08-01T10:40:35.581Z,44.05
2022-08-01T10:43:04.015Z,42.67
2022-08-01T10:45:31.947Z,42.92
2022-08-01T10:48:02.438Z,43.49
2022-08-01T10:50:32.533Z,44.05
2022-08-01T10:53:16.136Z,45.02
2022-08-01T10:55:52.697Z,46.53
2022-08-01T10:58:24.342Z,44.64
2022-08-01T11:01:26.677Z,44.67
2022-08-01T11:04:06.222Z,42.88
2022-08-01T11:06:55.380Z,40.95
2022-08-01T11:09:36.476Z,40.62
2022-08-01T11:12:08.206Z,39.24
2022-08-01T11:15:29.759Z,39.07
2022-08-01T11:18:00.445Z,38.46
2022-08-01T11:20:31.582Z,38.83
2022-08-01T11:23:36.376Z,39.68
2022-08-01T11:26:29.001Z,41.31
2022-08-01T11:29:22.601Z,41.68
2022-08-01T11:31:51.349Z,42.58
2022-08-01T11:34:19.773Z,43.98
2022-08-01T11:37:03.485Z,44.06
2022-08-01T11:39:35.521Z,42.57
2022-08-01T11:42:22.414Z,43.37
2022-08-01T11:44:52.383Z,41.17
2022-08-01T11:47:46.705Z,40.12
2022-08-01T11:50:36.944Z,39.74
2022-08-01T11:53:15.797Z,39.98
2022-08-01T11:58:22.301Z,38.83
2022-08-01T12:00:55.504Z,38.41
2022-08-01T12:03:33.660Z,38.20
2022-08-01T12:06:02.336Z,37.99
2022-08-01T12:08:30.625Z,37.77
2022-08-01T12:11:02.556Z,37.64
2022-08-01T12:13:40.193Z,37.43
2022-08-01T12:16:09.065Z,37.23
2022-08-01T12:18:40.462Z,37.14
2022-08-01T12:21:08.297Z,37.04
2022-08-01T12:23:36.145Z,37.00
2022-08-01T12:26:05.074Z,37.03
2022-08-01T12:28:41.079Z,36.99
2022-08-01T12:31:08.947Z,36.89
2022-08-01T12:33:36.923Z,36.83
2022-08-01T12:36:04.901Z,36.68
2022-08-01T12:38:33.981Z,36.49
2022-08-01T12:41:02.033Z,36.28
2022-08-01T12:43:29.897Z,36.13
2022-08-01T12:46:00.906Z,36.06
2022-08-01T12:48:29.054Z,35.79
2022-08-01T12:50:58.531Z,35.53
2022-08-01T12:53:27.038Z,35.37
2022-08-01T12:56:07.815Z,35.21
2022-08-01T12:58:35.862Z,35.16
2022-08-01T13:01:09.159Z,35.06
2022-08-01T13:03:37.073Z,35.01
2022-08-01T13:06:12.677Z,34.92
2022-08-01T13:08:40.495Z,34.85
2022-08-01T13:11:10.071Z,34.94
2022-08-01T13:13:40.158Z,35.01
2022-08-01T13:16:12.492Z,35.00
2022-08-01T13:18:50.473Z,34.95
2022-08-01T13:21:19.072Z,34.93
2022-08-01T13:24:04.237Z,34.97
2022-08-01T13:26:45.997Z,34.99
2022-08-01T13:29:14.596Z,34.98
2022-08-01T13:31:44.164Z,34.99
2022-08-01T13:34:11.983Z,34.92
2022-08-01T13:36:43.047Z,34.78
2022-08-01T13:39:34.371Z,34.73
2022-08-01T13:42:02.222Z,34.76
2022-08-01T13:44:30.084Z,34.70
2022-08-01T13:46:59.389Z,34.62
2022-08-01T13:49:37.382Z,34.60
2022-08-01T13:52:07.574Z,34.48
2022-08-01T13:54:35.836Z,34.47
2022-08-01T13:57:03.730Z,34.47
2022-08-01T13:59:31.600Z,34.45
2022-08-01T14:02:00.863Z,34.39
2022-08-01T14:04:28.690Z,34.30
2022-08-01T14:06:56.637Z,34.10
2022-08-01T14:09:26.751Z,34.05
2022-08-01T14:12:00.485Z,33.98
2022-08-01T14:14:28.347Z,33.79
2022-08-01T14:16:56.247Z,33.64
2022-08-01T14:19:38.918Z,33.48
2022-08-01T14:22:08.464Z,33.36
2022-08-01T14:24:36.705Z,33.34
2022-08-01T14:27:06.943Z,33.39
2022-08-01T14:30:02.868Z,33.40
2022-08-01T14:32:25.958Z,33.34
2022-08-01T14:34:58.107Z,33.28
2022-08-01T14:37:29.170Z,33.28
2022-08-01T14:39:58.972Z,33.26
2022-08-01T14:42:26.901Z,33.28
2022-08-01T14:44:54.814Z,33.42
2022-08-01T14:47:22.765Z,33.50
2022-08-01T14:49:51.485Z,33.58
2022-08-01T14:52:21.553Z,33.45
2022-08-01T14:54:49.474Z,33.56
2022-08-01T14:57:19.230Z,33.50
2022-08-01T14:59:47.273Z,33.45
2022-08-01T15:02:18.147Z,33.48
2022-08-01T15:04:46.171Z,33.45
2022-08-01T15:07:13.999Z,33.43
2022-08-01T15:09:43.263Z,33.41
2022-08-01T15:12:11.398Z,33.45
2022-08-01T15:14:51.374Z,33.35
2022-08-01T15:17:20.265Z,33.16
2022-08-01T15:19:50.972Z,32.99
2022-08-01T15:22:20.293Z,32.82
2022-08-01T15:24:51.934Z,32.63
2022-08-01T15:27:22.497Z,32.55
2022-08-01T15:29:50.347Z,32.51
2022-08-01T15:32:18.228Z,32.46
2022-08-01T15:34:46.208Z,32.39
2022-08-01T15:37:14.422Z,32.38
2022-08-01T15:39:42.334Z,32.42
2022-08-01T15:42:12.727Z,32.24
2022-08-01T15:44:40.551Z,32.17
2022-08-01T15:47:08.483Z,32.00
2022-08-01T15:49:37.089Z,31.94
2022-08-01T15:52:05.514Z,32.10
2022-08-01T15:54:33.861Z,32.09
2022-08-01T15:57:01.755Z,32.08
2022-08-01T15:59:30.990Z,32.06
2022-08-01T16:01:59.222Z,32.02
2022-08-01T16:04:29.872Z,31.97
2022-08-01T16:06:58.196Z,31.88
2022-08-01T16:09:26.952Z,31.76
2022-08-01T16:11:55.011Z,31.63
2022-08-01T16:14:22.869Z,31.46
2022-08-01T16:16:55.192Z,31.40
2022-08-01T16:19:24.144Z,31.31
2022-08-01T16:21:53.173Z,31.13
2022-08-01T16:24:20.999Z,31.30
2022-08-01T16:26:49.071Z,31.36
2022-08-01T16:29:16.957Z,31.40
2022-08-01T16:31:52.285Z,31.41
2022-08-01T16:34:34.119Z,31.28
2022-08-01T16:37:03.639Z,31.26
2022-08-01T16:39:35.399Z,31.21
2022-08-01T16:42:03.306Z,31.10
2022-08-01T16:44:34.117Z,30.89
2022-08-01T16:47:03.103Z,30.95
2022-08-01T16:49:31.988Z,30.91
2022-08-01T16:52:02.075Z,30.92
2022-08-01T16:54:30.147Z,30.65
2022-08-01T16:57:08.306Z,30.89
2022-08-01T16:59:40.862Z,30.90
2022-08-01T17:02:09.901Z,30.89
2022-08-01T17:04:37.754Z,30.87
2022-08-01T17:07:07.341Z,30.88
2022-08-01T17:09:38.635Z,30.90
2022-08-01T17:12:10.662Z,30.87
2022-08-01T17:14:39.950Z,30.86
2022-08-01T17:17:08.625Z,30.77
2022-08-01T17:19:36.873Z,30.74
2022-08-01T17:22:06.071Z,30.66
2022-08-01T17:24:34.042Z,30.63
2022-08-01T17:27:01.995Z,30.58
2022-08-01T17:29:43.731Z,30.52
2022-08-01T17:32:12.473Z,30.25
2022-08-01T17:34:40.413Z,30.46
2022-08-01T17:37:10.031Z,30.40
2022-08-01T17:39:39.493Z,30.26
2022-08-01T17:42:08.455Z,30.24
2022-08-01T17:44:36.332Z,30.21
2022-08-01T17:47:06.144Z,30.14
2022-08-01T17:49:53.810Z,30.11
2022-08-01T17:52:26.196Z,29.83
2022-08-01T17:54:58.190Z,29.73
2022-08-01T17:57:26.331Z,29.93
2022-08-01T17:59:54.220Z,29.87
2022-08-01T18:02:22.446Z,29.76
2022-08-01T18:04:52.313Z,29.60
2022-08-01T18:07:20.430Z,29.58
2022-08-01T18:09:49.799Z,29.48
2022-08-01T18:12:18.397Z,29.39
2022-08-01T18:14:46.219Z,29.24
2022-08-01T18:17:14.456Z,29.21
2022-08-01T18:19:46.562Z,29.10
2022-08-01T18:22:33.186Z,28.98
2022-08-01T18:25:08.635Z,28.88
2022-08-01T18:28:23.388Z,28.79
2022-08-01T18:30:24.966Z,28.74
2022-08-01T18:32:53.508Z,28.62
2022-08-01T18:35:22.554Z,28.58
2022-08-01T18:37:55.474Z,28.52
2022-08-01T18:40:24.811Z,28.46
2022-08-01T18:42:54.400Z,28.39
2022-08-01T18:45:22.234Z,28.29
2022-08-01T18:47:50.221Z,28.25
2022-08-01T18:50:18.021Z,28.11
2022-08-01T18:52:46.022Z,28.06
2022-08-01T18:55:13.853Z,27.96
2022-08-01T18:57:43.059Z,27.78
2022-08-01T19:00:13.716Z,27.80
2022-08-01T19:02:41.916Z,27.61
2022-08-01T19:05:10.477Z,27.69
2022-08-01T19:08:05.247Z,27.50
2022-08-01T19:10:26.409Z,27.64
2022-08-01T19:12:55.732Z,27.61
2022-08-01T19:15:23.568Z,27.56
2022-08-01T19:17:51.481Z,27.43
2022-08-01T19:20:19.303Z,27.38
2022-08-01T19:22:47.237Z,27.31
2022-08-01T19:25:14.489Z,27.33
2022-08-01T19:27:44.191Z,27.27
2022-08-01T19:30:14.306Z,27.21
2022-08-01T19:32:43.145Z,27.13
2022-08-01T19:35:12.243Z,27.07
2022-08-01T19:37:44.004Z,26.97
2022-08-01T19:40:27.656Z,26.87
2022-08-01T19:42:56.658Z,26.78
2022-08-01T19:45:28.297Z,26.70
2022-08-01T19:47:57.599Z,26.63
2022-08-01T19:50:26.469Z,26.54
2022-08-01T19:52:54.933Z,26.18
2022-08-01T19:55:23.383Z,26.39
2022-08-01T19:58:10.559Z,26.32
2022-08-01T20:00:40.561Z,26.25
2022-08-01T20:03:08.739Z,26.19
2022-08-01T20:05:37.230Z,26.14
2022-08-01T20:08:06.940Z,26.03
2022-08-01T20:10:35.702Z,25.87
2022-08-01T20:13:04.783Z,25.96
2022-08-01T20:15:32.631Z,25.89
2022-08-01T20:18:01.954Z,25.77
2022-08-01T20:20:29.849Z,25.82
2022-08-01T20:22:59.979Z,25.77
2022-08-01T20:25:33.568Z,25.71
2022-08-01T20:28:08.790Z,25.67
2022-08-01T20:30:36.664Z,25.60
2022-08-01T20:33:05.906Z,25.48
2022-08-01T20:35:53.483Z,25.25
2022-08-01T20:38:23.023Z,25.38
2022-08-01T20:40:51.062Z,25.38
2022-08-01T20:43:20.110Z,25.32
2022-08-01T20:45:48.475Z,25.29
2022-08-01T20:48:18.341Z,25.23
2022-08-01T20:51:03.745Z,25.19
2022-08-01T20:53:31.788Z,24.88
2022-08-01T20:56:01.889Z,24.84
2022-08-01T20:58:34.881Z,24.85
2022-08-01T21:01:03.020Z,24.98
2022-08-01T21:03:37.999Z,24.88
2022-08-01T21:06:08.923Z,24.82
2022-08-01T21:08:39.411Z,24.58
2022-08-01T21:11:07.911Z,24.68
2022-08-01T21:13:38.187Z,24.60
2022-08-01T21:16:23.912Z,24.44
2022-08-01T21:21:46.119Z,24.37
2022-08-01T21:24:16.877Z,24.33
2022-08-01T21:26:44.831Z,24.05
2022-08-01T21:29:12.781Z,24.20
2022-08-01T21:31:41.428Z,24.15
2022-08-01T21:36:44.759Z,24.03
2022-08-01T21:39:12.567Z,23.97
2022-08-01T21:42:04.806Z,23.95
2022-08-01T21:44:28.640Z,23.90
2022-08-01T21:46:57.426Z,23.83
2022-08-01T21:49:25.599Z,23.79
2022-08-01T21:51:55.659Z,23.74
2022-08-01T21:54:28.400Z,23.60
2022-08-01T21:56:59.745Z,23.53
2022-08-01T21:59:31.078Z,23.43
2022-08-01T22:02:01.296Z,23.58
2022-08-01T22:04:34.511Z,23.54
2022-08-01T22:07:03.920Z,23.49
2022-08-01T22:09:32.149Z,23.46
2022-08-01T22:12:01.618Z,23.42
2022-08-01T22:14:30.275Z,23.37
2022-08-01T22:16:58.432Z,23.13
2022-08-01T22:19:41.316Z,23.30
2022-08-01T22:22:44.703Z,23.20
2022-08-01T22:25:02.933Z,23.20
2022-08-01T22:28:05.507Z,23.07
2022-08-01T22:30:19.007Z,23.04
2022-08-01T22:33:06.842Z,23.07
2022-08-01T22:35:35.336Z,23.04
2022-08-01T22:38:04.558Z,22.98
2022-08-01T22:40:33.164Z,22.95
2022-08-01T22:43:01.564Z,22.77
2022-08-01T22:45:32.356Z,22.82
2022-08-01T22:48:03.495Z,22.54
2022-08-01T22:50:36.278Z,22.72
2022-08-01T22:53:13.076Z,22.69
2022-08-01T22:55:58.384Z,22.66
2022-08-01T22:58:27.663Z,22.44
2022-08-01T23:00:56.073Z,22.58
2022-08-01T23:03:26.545Z,22.53
2022-08-01T23:05:57.288Z,22.39
2022-08-01T23:08:26.515Z,22.41
2022-08-01T23:10:54.587Z,22.35
2022-08-01T23:13:22.455Z,22.15
2022-08-01T23:15:52.401Z,22.17
2022-08-01T23:18:20.584Z,22.17
2022-08-01T23:20:48.652Z,22.08
2022-08-01T23:23:16.524Z,22.14
2022-08-01T23:25:45.866Z,22.10
2022-08-01T23:28:13.740Z,22.10
2022-08-01T23:30:41.762Z,22.06
2022-08-01T23:33:09.637Z,22.06
2022-08-01T23:35:43.260Z,22.06
2022-08-01T23:38:11.153Z,21.98
2022-08-01T23:40:39.232Z,22.02
2022-08-01T23:43:16.879Z,21.80
2022-08-01T23:46:04.078Z,21.97
2022-08-01T23:48:34.425Z,21.92
2022-08-01T23:51:02.427Z,21.91
2022-08-01T23:53:30.936Z,21.83
2022-08-01T23:56:01.734Z,21.86
2022-08-01T23:58:32.166Z,21.83
